sensor_id;sensor_type;location;lat;lon;timestamp;temperature;humidity
72814;DHT22;60945;48.516;-2.768;2022-11-20T00:01:45;9.30;80.90
72814;DHT22;60945;48.516;-2.768;2022-11-20T00:04:11;9.40;80.20
72814;DHT22;60945;48.516;-2.768;2022-11-20T00:06:37;9.40;80.70
72814;DHT22;60945;48.516;-2.768;2022-11-20T00:09:03;9.40;80.60
72814;DHT22;60945;48.516;-2.768;2022-11-20T00:11:31;9.40;80.60
72814;DHT22;60945;48.516;-2.768;2022-11-20T00:13:58;9.40;81.10
72814;DHT22;60945;48.516;-2.768;2022-11-20T00:16:29;9.50;81.10
72814;DHT22;60945;48.516;-2.768;2022-11-20T00:18:55;9.50;80.80
72814;DHT22;60945;48.516;-2.768;2022-11-20T00:21:23;9.40;81.20
72814;DHT22;60945;48.516;-2.768;2022-11-20T00:23:50;9.40;81.60
72814;DHT22;60945;48.516;-2.768;2022-11-20T00:26:18;9.40;82.00
72814;DHT22;60945;48.516;-2.768;2022-11-20T00:28:58;9.50;82.00
72814;DHT22;60945;48.516;-2.768;2022-11-20T00:31:24;9.50;82.20
72814;DHT22;60945;48.516;-2.768;2022-11-20T00:33:50;9.70;81.90
72814;DHT22;60945;48.516;-2.768;2022-11-20T00:36:18;9.70;81.90
72814;DHT22;60945;48.516;-2.768;2022-11-20T00:38:44;9.70;81.80
72814;DHT22;60945;48.516;-2.768;2022-11-20T00:41:15;9.70;82.20
72814;DHT22;60945;48.516;-2.768;2022-11-20T00:43:41;9.80;81.80
72814;DHT22;60945;48.516;-2.768;2022-11-20T00:46:16;9.80;81.90
72814;DHT22;60945;48.516;-2.768;2022-11-20T00:48:42;9.80;81.60
72814;DHT22;60945;48.516;-2.768;2022-11-20T00:51:08;9.60;82.30
72814;DHT22;60945;48.516;-2.768;2022-11-20T00:53:34;9.60;82.70
72814;DHT22;60945;48.516;-2.768;2022-11-20T00:56:03;9.50;82.70
72814;DHT22;60945;48.516;-2.768;2022-11-20T00:58:33;9.50;83.10
72814;DHT22;60945;48.516;-2.768;2022-11-20T01:01:00;9.70;82.40
72814;DHT22;60945;48.516;-2.768;2022-11-20T01:03:27;9.70;82.50
72814;DHT22;60945;48.516;-2.768;2022-11-20T01:05:53;9.60;82.40
72814;DHT22;60945;48.516;-2.768;2022-11-20T01:08:19;9.50;82.90
72814;DHT22;60945;48.516;-2.768;2022-11-20T01:10:44;9.60;82.90
72814;DHT22;60945;48.516;-2.768;2022-11-20T01:13:10;9.50;83.60
72814;DHT22;60945;48.516;-2.768;2022-11-20T01:15:54;9.50;83.60
72814;DHT22;60945;48.516;-2.768;2022-11-20T01:18:19;9.60;83.50
72814;DHT22;60945;48.516;-2.768;2022-11-20T01:20:45;9.70;82.90
72814;DHT22;60945;48.516;-2.768;2022-11-20T01:23:11;9.80;82.70
72814;DHT22;60945;48.516;-2.768;2022-11-20T01:25:36;9.70;83.30
72814;DHT22;60945;48.516;-2.768;2022-11-20T01:28:02;9.60;83.60
72814;DHT22;60945;48.516;-2.768;2022-11-20T01:30:28;9.60;83.90
72814;DHT22;60945;48.516;-2.768;2022-11-20T01:32:55;9.60;84.30
72814;DHT22;60945;48.516;-2.768;2022-11-20T01:35:22;9.70;84.50
72814;DHT22;60945;48.516;-2.768;2022-11-20T01:37:50;9.90;83.50
72814;DHT22;60945;48.516;-2.768;2022-11-20T01:40:15;9.80;83.80
72814;DHT22;60945;48.516;-2.768;2022-11-20T01:42:47;9.80;84.50
72814;DHT22;60945;48.516;-2.768;2022-11-20T01:45:58;9.80;85.10
72814;DHT22;60945;48.516;-2.768;2022-11-20T01:48:28;9.80;85.30
72814;DHT22;60945;48.516;-2.768;2022-11-20T01:50:55;9.70;85.70
72814;DHT22;60945;48.516;-2.768;2022-11-20T01:53:27;9.60;85.80
72814;DHT22;60945;48.516;-2.768;2022-11-20T01:55:57;9.60;86.40
72814;DHT22;60945;48.516;-2.768;2022-11-20T01:58:32;9.50;86.50
72814;DHT22;60945;48.516;-2.768;2022-11-20T02:01:00;9.60;86.30
72814;DHT22;60945;48.516;-2.768;2022-11-20T02:03:26;9.70;86.00
72814;DHT22;60945;48.516;-2.768;2022-11-20T02:08:28;9.40;86.50
72814;DHT22;60945;48.516;-2.768;2022-11-20T02:10:54;9.40;87.20
72814;DHT22;60945;48.516;-2.768;2022-11-20T02:13:19;9.30;87.40
72814;DHT22;60945;48.516;-2.768;2022-11-20T02:16:04;9.40;87.60
72814;DHT22;60945;48.516;-2.768;2022-11-20T02:18:33;9.40;87.10
72814;DHT22;60945;48.516;-2.768;2022-11-20T02:21:06;9.40;87.00
72814;DHT22;60945;48.516;-2.768;2022-11-20T02:26:12;9.40;87.40
72814;DHT22;60945;48.516;-2.768;2022-11-20T02:28:39;9.30;88.10
72814;DHT22;60945;48.516;-2.768;2022-11-20T02:31:05;9.30;88.30
72814;DHT22;60945;48.516;-2.768;2022-11-20T02:33:31;9.30;88.50
72814;DHT22;60945;48.516;-2.768;2022-11-20T02:35:56;9.30;88.90
72814;DHT22;60945;48.516;-2.768;2022-11-20T02:38:22;9.20;88.90
72814;DHT22;60945;48.516;-2.768;2022-11-20T02:40:47;9.20;89.40
72814;DHT22;60945;48.516;-2.768;2022-11-20T02:43:15;9.20;89.90
72814;DHT22;60945;48.516;-2.768;2022-11-20T02:45:41;9.20;89.90
72814;DHT22;60945;48.516;-2.768;2022-11-20T02:48:07;9.20;90.30
72814;DHT22;60945;48.516;-2.768;2022-11-20T02:50:33;9.20;90.30
72814;DHT22;60945;48.516;-2.768;2022-11-20T02:52:58;9.20;90.80
72814;DHT22;60945;48.516;-2.768;2022-11-20T02:55:24;9.20;90.60
72814;DHT22;60945;48.516;-2.768;2022-11-20T02:57:50;9.10;91.00
72814;DHT22;60945;48.516;-2.768;2022-11-20T03:00:15;9.20;91.40
72814;DHT22;60945;48.516;-2.768;2022-11-20T03:02:42;9.10;91.40
72814;DHT22;60945;48.516;-2.768;2022-11-20T03:05:07;9.10;91.80
72814;DHT22;60945;48.516;-2.768;2022-11-20T03:07:34;9.10;92.30
72814;DHT22;60945;48.516;-2.768;2022-11-20T03:10:00;9.10;92.40
72814;DHT22;60945;48.516;-2.768;2022-11-20T03:12:26;9.10;92.20
72814;DHT22;60945;48.516;-2.768;2022-11-20T03:14:51;9.20;92.20
72814;DHT22;60945;48.516;-2.768;2022-11-20T03:17:17;9.30;91.90
72814;DHT22;60945;48.516;-2.768;2022-11-20T03:19:43;9.50;91.20
72814;DHT22;60945;48.516;-2.768;2022-11-20T03:22:08;9.50;90.80
72814;DHT22;60945;48.516;-2.768;2022-11-20T03:24:34;9.60;90.60
72814;DHT22;60945;48.516;-2.768;2022-11-20T03:27:00;9.70;90.10
72814;DHT22;60945;48.516;-2.768;2022-11-20T03:29:25;9.70;90.10
72814;DHT22;60945;48.516;-2.768;2022-11-20T03:31:51;9.70;90.40
72814;DHT22;60945;48.516;-2.768;2022-11-20T03:34:16;9.80;90.30
72814;DHT22;60945;48.516;-2.768;2022-11-20T03:36:42;9.80;90.20
72814;DHT22;60945;48.516;-2.768;2022-11-20T03:39:08;9.80;90.90
72814;DHT22;60945;48.516;-2.768;2022-11-20T03:41:41;9.90;91.00
72814;DHT22;60945;48.516;-2.768;2022-11-20T03:44:09;9.80;91.50
72814;DHT22;60945;48.516;-2.768;2022-11-20T03:46:34;9.80;92.00
72814;DHT22;60945;48.516;-2.768;2022-11-20T03:49:00;9.90;92.30
72814;DHT22;60945;48.516;-2.768;2022-11-20T03:51:29;10.00;92.00
72814;DHT22;60945;48.516;-2.768;2022-11-20T03:53:57;10.10;91.50
72814;DHT22;60945;48.516;-2.768;2022-11-20T03:56:25;10.20;91.30
72814;DHT22;60945;48.516;-2.768;2022-11-20T03:58:51;10.20;90.80
72814;DHT22;60945;48.516;-2.768;2022-11-20T04:01:19;10.30;90.50
72814;DHT22;60945;48.516;-2.768;2022-11-20T04:03:45;10.30;90.40
72814;DHT22;60945;48.516;-2.768;2022-11-20T04:06:18;10.30;90.10
72814;DHT22;60945;48.516;-2.768;2022-11-20T04:08:44;10.30;89.80
72814;DHT22;60945;48.516;-2.768;2022-11-20T04:11:37;10.20;89.80
72814;DHT22;60945;48.516;-2.768;2022-11-20T04:14:06;10.20;89.80
72814;DHT22;60945;48.516;-2.768;2022-11-20T04:16:34;10.10;89.90
72814;DHT22;60945;48.516;-2.768;2022-11-20T04:19:02;10.10;90.40
72814;DHT22;60945;48.516;-2.768;2022-11-20T04:21:29;10.10;90.50
72814;DHT22;60945;48.516;-2.768;2022-11-20T04:23:55;10.20;90.60
72814;DHT22;60945;48.516;-2.768;2022-11-20T04:26:22;10.20;90.40
72814;DHT22;60945;48.516;-2.768;2022-11-20T04:28:48;10.10;90.70
72814;DHT22;60945;48.516;-2.768;2022-11-20T04:31:17;10.10;90.80
72814;DHT22;60945;48.516;-2.768;2022-11-20T04:33:43;10.00;91.20
72814;DHT22;60945;48.516;-2.768;2022-11-20T04:36:15;10.20;91.40
72814;DHT22;60945;48.516;-2.768;2022-11-20T04:38:41;10.20;91.30
72814;DHT22;60945;48.516;-2.768;2022-11-20T04:41:09;10.30;91.30
72814;DHT22;60945;48.516;-2.768;2022-11-20T04:43:38;10.30;90.90
72814;DHT22;60945;48.516;-2.768;2022-11-20T04:46:04;10.40;90.90
72814;DHT22;60945;48.516;-2.768;2022-11-20T04:48:30;10.50;90.60
72814;DHT22;60945;48.516;-2.768;2022-11-20T04:50:56;10.50;90.60
72814;DHT22;60945;48.516;-2.768;2022-11-20T04:53:22;10.50;90.60
72814;DHT22;60945;48.516;-2.768;2022-11-20T04:55:48;10.50;90.70
72814;DHT22;60945;48.516;-2.768;2022-11-20T04:58:14;10.50;91.00
72814;DHT22;60945;48.516;-2.768;2022-11-20T05:00:39;10.50;91.20
72814;DHT22;60945;48.516;-2.768;2022-11-20T05:03:05;10.50;91.50
72814;DHT22;60945;48.516;-2.768;2022-11-20T05:05:33;10.50;91.30
72814;DHT22;60945;48.516;-2.768;2022-11-20T05:07:59;10.40;91.50
72814;DHT22;60945;48.516;-2.768;2022-11-20T05:10:25;10.30;91.50
72814;DHT22;60945;48.516;-2.768;2022-11-20T05:12:51;10.20;91.70
72814;DHT22;60945;48.516;-2.768;2022-11-20T05:15:17;10.10;92.10
72814;DHT22;60945;48.516;-2.768;2022-11-20T05:17:49;10.00;92.50
72814;DHT22;60945;48.516;-2.768;2022-11-20T05:20:15;9.90;92.90
72814;DHT22;60945;48.516;-2.768;2022-11-20T05:22:41;9.80;92.90
72814;DHT22;60945;48.516;-2.768;2022-11-20T05:25:07;9.70;93.30
72814;DHT22;60945;48.516;-2.768;2022-11-20T05:27:33;9.70;93.70
72814;DHT22;60945;48.516;-2.768;2022-11-20T05:29:58;9.70;94.00
72814;DHT22;60945;48.516;-2.768;2022-11-20T05:32:24;9.70;94.50
72814;DHT22;60945;48.516;-2.768;2022-11-20T05:34:51;9.70;94.60
72814;DHT22;60945;48.516;-2.768;2022-11-20T05:37:17;9.70;94.40
72814;DHT22;60945;48.516;-2.768;2022-11-20T05:39:42;9.70;94.70
72814;DHT22;60945;48.516;-2.768;2022-11-20T05:42:08;9.80;94.60
72814;DHT22;60945;48.516;-2.768;2022-11-20T05:44:52;9.90;94.40
72814;DHT22;60945;48.516;-2.768;2022-11-20T05:47:18;9.90;94.20
72814;DHT22;60945;48.516;-2.768;2022-11-20T05:49:43;9.90;94.30
72814;DHT22;60945;48.516;-2.768;2022-11-20T05:52:09;9.90;94.20
72814;DHT22;60945;48.516;-2.768;2022-11-20T05:54:34;10.00;93.80
72814;DHT22;60945;48.516;-2.768;2022-11-20T05:57:00;10.00;94.00
72814;DHT22;60945;48.516;-2.768;2022-11-20T05:59:26;10.10;93.40
72814;DHT22;60945;48.516;-2.768;2022-11-20T06:01:51;10.10;93.50
72814;DHT22;60945;48.516;-2.768;2022-11-20T06:04:17;10.20;93.60
72814;DHT22;60945;48.516;-2.768;2022-11-20T06:06:42;10.30;93.30
72814;DHT22;60945;48.516;-2.768;2022-11-20T06:09:08;10.30;92.70
72814;DHT22;60945;48.516;-2.768;2022-11-20T06:11:34;10.30;92.20
72814;DHT22;60945;48.516;-2.768;2022-11-20T06:13:59;10.30;92.50
72814;DHT22;60945;48.516;-2.768;2022-11-20T06:16:25;10.20;92.20
72814;DHT22;60945;48.516;-2.768;2022-11-20T06:18:50;10.00;92.50
72814;DHT22;60945;48.516;-2.768;2022-11-20T06:21:19;9.90;92.80
72814;DHT22;60945;48.516;-2.768;2022-11-20T06:23:45;9.80;93.40
72814;DHT22;60945;48.516;-2.768;2022-11-20T06:26:19;9.80;93.60
72814;DHT22;60945;48.516;-2.768;2022-11-20T06:28:45;9.70;93.60
72814;DHT22;60945;48.516;-2.768;2022-11-20T06:31:13;9.60;94.00
72814;DHT22;60945;48.516;-2.768;2022-11-20T06:33:40;9.60;94.30
72814;DHT22;60945;48.516;-2.768;2022-11-20T06:36:06;9.60;94.60
72814;DHT22;60945;48.516;-2.768;2022-11-20T06:38:32;9.50;94.60
72814;DHT22;60945;48.516;-2.768;2022-11-20T06:40:57;9.50;94.70
72814;DHT22;60945;48.516;-2.768;2022-11-20T06:43:23;9.40;94.50
72814;DHT22;60945;48.516;-2.768;2022-11-20T06:45:53;9.30;94.40
72814;DHT22;60945;48.516;-2.768;2022-11-20T06:48:19;9.30;94.60
72814;DHT22;60945;48.516;-2.768;2022-11-20T06:50:45;9.30;94.50
72814;DHT22;60945;48.516;-2.768;2022-11-20T06:53:11;9.20;94.70
72814;DHT22;60945;48.516;-2.768;2022-11-20T06:55:36;9.20;94.90
72814;DHT22;60945;48.516;-2.768;2022-11-20T06:58:02;9.20;94.90
72814;DHT22;60945;48.516;-2.768;2022-11-20T07:00:27;9.10;94.90
72814;DHT22;60945;48.516;-2.768;2022-11-20T07:02:53;9.10;95.00
72814;DHT22;60945;48.516;-2.768;2022-11-20T07:05:19;9.10;94.80
72814;DHT22;60945;48.516;-2.768;2022-11-20T07:07:44;9.00;94.50
72814;DHT22;60945;48.516;-2.768;2022-11-20T07:10:10;9.00;94.60
72814;DHT22;60945;48.516;-2.768;2022-11-20T07:12:36;9.00;94.30
72814;DHT22;60945;48.516;-2.768;2022-11-20T07:15:02;8.90;94.30
72814;DHT22;60945;48.516;-2.768;2022-11-20T07:17:27;8.90;94.20
72814;DHT22;60945;48.516;-2.768;2022-11-20T07:19:53;8.90;94.00
72814;DHT22;60945;48.516;-2.768;2022-11-20T07:22:19;8.90;93.90
72814;DHT22;60945;48.516;-2.768;2022-11-20T07:24:47;8.80;93.80
72814;DHT22;60945;48.516;-2.768;2022-11-20T07:27:13;8.90;93.50
72814;DHT22;60945;48.516;-2.768;2022-11-20T07:29:39;8.80;93.40
72814;DHT22;60945;48.516;-2.768;2022-11-20T07:32:04;8.80;93.10
72814;DHT22;60945;48.516;-2.768;2022-11-20T07:34:30;8.80;93.10
72814;DHT22;60945;48.516;-2.768;2022-11-20T07:36:56;8.70;92.80
72814;DHT22;60945;48.516;-2.768;2022-11-20T07:39:21;8.80;93.20
72814;DHT22;60945;48.516;-2.768;2022-11-20T07:41:47;8.70;93.00
72814;DHT22;60945;48.516;-2.768;2022-11-20T07:44:12;8.80;93.20
72814;DHT22;60945;48.516;-2.768;2022-11-20T07:46:38;8.80;93.10
72814;DHT22;60945;48.516;-2.768;2022-11-20T07:49:04;8.80;92.80
72814;DHT22;60945;48.516;-2.768;2022-11-20T07:51:29;8.90;92.60
72814;DHT22;60945;48.516;-2.768;2022-11-20T07:53:55;8.90;92.60
72814;DHT22;60945;48.516;-2.768;2022-11-20T07:56:20;8.90;92.60
72814;DHT22;60945;48.516;-2.768;2022-11-20T07:58:46;8.90;92.50
72814;DHT22;60945;48.516;-2.768;2022-11-20T08:01:12;9.00;92.20
72814;DHT22;60945;48.516;-2.768;2022-11-20T08:03:37;9.00;92.00
72814;DHT22;60945;48.516;-2.768;2022-11-20T08:06:03;9.10;91.90
72814;DHT22;60945;48.516;-2.768;2022-11-20T08:08:29;9.30;91.30
72814;DHT22;60945;48.516;-2.768;2022-11-20T08:10:58;9.40;91.20
72814;DHT22;60945;48.516;-2.768;2022-11-20T08:13:47;9.50;90.70
72814;DHT22;60945;48.516;-2.768;2022-11-20T08:16:31;9.50;90.40
72814;DHT22;60945;48.516;-2.768;2022-11-20T08:18:57;9.50;90.00
72814;DHT22;60945;48.516;-2.768;2022-11-20T08:21:23;9.50;89.40
72814;DHT22;60945;48.516;-2.768;2022-11-20T08:23:49;9.60;89.50
72814;DHT22;60945;48.516;-2.768;2022-11-20T08:26:15;9.70;88.90
72814;DHT22;60945;48.516;-2.768;2022-11-20T08:28:40;9.80;88.40
72814;DHT22;60945;48.516;-2.768;2022-11-20T08:31:06;10.00;88.70
72814;DHT22;60945;48.516;-2.768;2022-11-20T08:33:31;10.20;88.30
72814;DHT22;60945;48.516;-2.768;2022-11-20T08:36:05;10.40;87.30
72814;DHT22;60945;48.516;-2.768;2022-11-20T08:38:31;10.50;86.20
72814;DHT22;60945;48.516;-2.768;2022-11-20T08:41:00;10.30;86.40
72814;DHT22;60945;48.516;-2.768;2022-11-20T08:43:45;10.20;86.70
72814;DHT22;60945;48.516;-2.768;2022-11-20T08:46:10;10.10;87.10
72814;DHT22;60945;48.516;-2.768;2022-11-20T08:48:36;10.00;86.60
72814;DHT22;60945;48.516;-2.768;2022-11-20T08:51:02;10.10;87.30
72814;DHT22;60945;48.516;-2.768;2022-11-20T08:53:28;10.30;87.70
72814;DHT22;60945;48.516;-2.768;2022-11-20T08:55:56;10.60;86.70
72814;DHT22;60945;48.516;-2.768;2022-11-20T08:58:25;10.90;85.90
72814;DHT22;60945;48.516;-2.768;2022-11-20T09:00:51;11.00;83.40
72814;DHT22;60945;48.516;-2.768;2022-11-20T09:03:16;11.20;81.50
72814;DHT22;60945;48.516;-2.768;2022-11-20T09:05:42;11.80;81.40
72814;DHT22;60945;48.516;-2.768;2022-11-20T09:08:11;12.20;79.70
72814;DHT22;60945;48.516;-2.768;2022-11-20T09:10:36;12.30;77.80
72814;DHT22;60945;48.516;-2.768;2022-11-20T09:13:05;12.40;76.80
72814;DHT22;60945;48.516;-2.768;2022-11-20T09:15:31;11.90;76.70
72814;DHT22;60945;48.516;-2.768;2022-11-20T09:17:59;11.70;77.40
72814;DHT22;60945;48.516;-2.768;2022-11-20T09:20:27;11.40;79.30
72814;DHT22;60945;48.516;-2.768;2022-11-20T09:22:54;11.40;79.50
72814;DHT22;60945;48.516;-2.768;2022-11-20T09:25:20;11.50;79.20
72814;DHT22;60945;48.516;-2.768;2022-11-20T09:27:46;11.70;78.70
72814;DHT22;60945;48.516;-2.768;2022-11-20T09:30:13;11.90;78.70
72814;DHT22;60945;48.516;-2.768;2022-11-20T09:32:39;12.00;78.50
72814;DHT22;60945;48.516;-2.768;2022-11-20T09:35:06;12.10;77.90
72814;DHT22;60945;48.516;-2.768;2022-11-20T09:37:34;12.10;75.90
72814;DHT22;60945;48.516;-2.768;2022-11-20T09:39:59;12.30;75.50
72814;DHT22;60945;48.516;-2.768;2022-11-20T09:42:47;12.20;75.50
72814;DHT22;60945;48.516;-2.768;2022-11-20T09:51:12;12.30;76.00
72814;DHT22;60945;48.516;-2.768;2022-11-20T09:56:09;12.40;74.20
72814;DHT22;60945;48.516;-2.768;2022-11-20T09:58:45;12.30;74.20
72814;DHT22;60945;48.516;-2.768;2022-11-20T10:01:19;12.40;74.20
72814;DHT22;60945;48.516;-2.768;2022-11-20T10:06:31;12.50;73.70
72814;DHT22;60945;48.516;-2.768;2022-11-20T10:09:29;12.60;73.90
72814;DHT22;60945;48.516;-2.768;2022-11-20T10:15:11;12.90;73.00
72814;DHT22;60945;48.516;-2.768;2022-11-20T10:17:54;12.90;72.80
72814;DHT22;60945;48.516;-2.768;2022-11-20T10:20:39;13.00;72.90
72814;DHT22;60945;48.516;-2.768;2022-11-20T10:28:40;13.10;73.00
72814;DHT22;60945;48.516;-2.768;2022-11-20T10:31:27;13.00;74.70
72814;DHT22;60945;48.516;-2.768;2022-11-20T10:33:54;13.00;72.90
72814;DHT22;60945;48.516;-2.768;2022-11-20T10:36:33;13.00;74.20
72814;DHT22;60945;48.516;-2.768;2022-11-20T10:39:11;13.00;72.90
72814;DHT22;60945;48.516;-2.768;2022-11-20T10:41:41;13.10;71.50
72814;DHT22;60945;48.516;-2.768;2022-11-20T10:44:17;13.70;70.50
72814;DHT22;60945;48.516;-2.768;2022-11-20T10:47:16;14.00;68.60
72814;DHT22;60945;48.516;-2.768;2022-11-20T10:49:46;14.30;68.50
72814;DHT22;60945;48.516;-2.768;2022-11-20T10:55:32;14.00;67.70
72814;DHT22;60945;48.516;-2.768;2022-11-20T10:58:14;13.90;68.40
72814;DHT22;60945;48.516;-2.768;2022-11-20T11:00:42;13.80;69.00
72814;DHT22;60945;48.516;-2.768;2022-11-20T11:03:25;13.60;70.20
72814;DHT22;60945;48.516;-2.768;2022-11-20T11:08:34;13.50;70.60
72814;DHT22;60945;48.516;-2.768;2022-11-20T11:13:35;13.40;69.80
72814;DHT22;60945;48.516;-2.768;2022-11-20T11:16:03;13.20;70.90
72814;DHT22;60945;48.516;-2.768;2022-11-20T11:18:30;13.10;71.30
72814;DHT22;60945;48.516;-2.768;2022-11-20T11:20:59;13.10;70.80
72814;DHT22;60945;48.516;-2.768;2022-11-20T11:23:40;13.10;70.80
72814;DHT22;60945;48.516;-2.768;2022-11-20T11:26:24;13.00;71.90
72814;DHT22;60945;48.516;-2.768;2022-11-20T11:29:02;13.10;70.40
72814;DHT22;60945;48.516;-2.768;2022-11-20T11:31:31;13.20;70.30
72814;DHT22;60945;48.516;-2.768;2022-11-20T11:34:14;13.20;69.50
72814;DHT22;60945;48.516;-2.768;2022-11-20T11:36:41;13.30;69.40
72814;DHT22;60945;48.516;-2.768;2022-11-20T11:39:15;13.20;69.70
72814;DHT22;60945;48.516;-2.768;2022-11-20T11:41:41;13.40;69.40
72814;DHT22;60945;48.516;-2.768;2022-11-20T11:47:02;13.80;66.90
72814;DHT22;60945;48.516;-2.768;2022-11-20T11:49:29;14.30;66.60
72814;DHT22;60945;48.516;-2.768;2022-11-20T11:52:18;14.60;65.30
72814;DHT22;60945;48.516;-2.768;2022-11-20T11:54:56;15.20;63.70
72814;DHT22;60945;48.516;-2.768;2022-11-20T12:00:09;15.20;63.00
72814;DHT22;60945;48.516;-2.768;2022-11-20T12:08:26;14.50;64.10
72814;DHT22;60945;48.516;-2.768;2022-11-20T12:11:06;14.10;66.30
72814;DHT22;60945;48.516;-2.768;2022-11-20T12:16:19;14.40;61.80
72814;DHT22;60945;48.516;-2.768;2022-11-20T12:18:49;14.30;63.40
72814;DHT22;60945;48.516;-2.768;2022-11-20T12:29:51;14.20;65.30
72814;DHT22;60945;48.516;-2.768;2022-11-20T12:37:52;14.00;62.70
72814;DHT22;60945;48.516;-2.768;2022-11-20T12:40:59;14.00;63.40
72814;DHT22;60945;48.516;-2.768;2022-11-20T12:43:27;14.00;63.00
72814;DHT22;60945;48.516;-2.768;2022-11-20T13:00:27;14.40;61.00
72814;DHT22;60945;48.516;-2.768;2022-11-20T13:08:26;14.40;60.50
72814;DHT22;60945;48.516;-2.768;2022-11-20T13:11:08;14.50;60.00
72814;DHT22;60945;48.516;-2.768;2022-11-20T13:16:29;15.00;56.90
72814;DHT22;60945;48.516;-2.768;2022-11-20T13:19:02;14.90;57.60
72814;DHT22;60945;48.516;-2.768;2022-11-20T13:21:45;14.80;57.80
72814;DHT22;60945;48.516;-2.768;2022-11-20T13:24:22;14.60;58.30
72814;DHT22;60945;48.516;-2.768;2022-11-20T13:27:03;14.50;59.40
72814;DHT22;60945;48.516;-2.768;2022-11-20T13:29:31;14.20;59.60
72814;DHT22;60945;48.516;-2.768;2022-11-20T13:34:37;14.50;59.20
72814;DHT22;60945;48.516;-2.768;2022-11-20T13:37:03;14.70;58.70
72814;DHT22;60945;48.516;-2.768;2022-11-20T13:39:33;15.20;58.00
72814;DHT22;60945;48.516;-2.768;2022-11-20T13:42:25;15.60;57.10
72814;DHT22;60945;48.516;-2.768;2022-11-20T13:45:01;15.80;55.80
72814;DHT22;60945;48.516;-2.768;2022-11-20T13:47:33;15.90;54.30
72814;DHT22;60945;48.516;-2.768;2022-11-20T13:50:03;15.60;55.80
72814;DHT22;60945;48.516;-2.768;2022-11-20T13:55:23;15.40;56.10
72814;DHT22;60945;48.516;-2.768;2022-11-20T13:57:59;15.80;54.30
72814;DHT22;60945;48.516;-2.768;2022-11-20T14:00:30;17.00;52.80
72814;DHT22;60945;48.516;-2.768;2022-11-20T14:03:10;17.70;49.60
72814;DHT22;60945;48.516;-2.768;2022-11-20T14:05:49;17.60;49.80
72814;DHT22;60945;48.516;-2.768;2022-11-20T14:08:28;17.90;50.50
72814;DHT22;60945;48.516;-2.768;2022-11-20T14:13:59;18.60;48.30
72814;DHT22;60945;48.516;-2.768;2022-11-20T14:16:26;18.50;50.30
72814;DHT22;60945;48.516;-2.768;2022-11-20T14:18:53;18.90;46.50
72814;DHT22;60945;48.516;-2.768;2022-11-20T14:21:27;18.60;47.20
72814;DHT22;60945;48.516;-2.768;2022-11-20T14:24:06;19.00;47.80
72814;DHT22;60945;48.516;-2.768;2022-11-20T14:26:32;19.80;46.30
72814;DHT22;60945;48.516;-2.768;2022-11-20T14:28:59;19.60;44.70
72814;DHT22;60945;48.516;-2.768;2022-11-20T14:31:26;18.20;47.80
72814;DHT22;60945;48.516;-2.768;2022-11-20T14:33:53;17.40;49.50
72814;DHT22;60945;48.516;-2.768;2022-11-20T14:36:24;17.80;49.50
72814;DHT22;60945;48.516;-2.768;2022-11-20T14:38:51;18.70;46.90
72814;DHT22;60945;48.516;-2.768;2022-11-20T14:41:24;19.00;46.10
72814;DHT22;60945;48.516;-2.768;2022-11-20T14:44:08;18.60;47.20
72814;DHT22;60945;48.516;-2.768;2022-11-20T14:46:34;18.70;46.60
72814;DHT22;60945;48.516;-2.768;2022-11-20T14:49:01;17.70;48.50
72814;DHT22;60945;48.516;-2.768;2022-11-20T14:51:37;17.00;51.30
72814;DHT22;60945;48.516;-2.768;2022-11-20T14:54:19;16.70;52.00
72814;DHT22;60945;48.516;-2.768;2022-11-20T14:57:00;16.10;54.30
72814;DHT22;60945;48.516;-2.768;2022-11-20T14:59:31;15.40;57.10
72814;DHT22;60945;48.516;-2.768;2022-11-20T15:02:06;15.00;58.90
72814;DHT22;60945;48.516;-2.768;2022-11-20T15:04:45;14.90;57.90
72814;DHT22;60945;48.516;-2.768;2022-11-20T15:07:24;14.80;60.10
72814;DHT22;60945;48.516;-2.768;2022-11-20T15:10:11;14.50;60.40
72814;DHT22;60945;48.516;-2.768;2022-11-20T15:12:46;14.40;59.70
72814;DHT22;60945;48.516;-2.768;2022-11-20T15:15:16;14.50;60.30
72814;DHT22;60945;48.516;-2.768;2022-11-20T15:17:42;14.30;59.70
72814;DHT22;60945;48.516;-2.768;2022-11-20T15:20:16;14.10;61.30
72814;DHT22;60945;48.516;-2.768;2022-11-20T15:22:42;13.90;60.50
72814;DHT22;60945;48.516;-2.768;2022-11-20T15:25:13;13.60;63.30
72814;DHT22;60945;48.516;-2.768;2022-11-20T15:27:39;13.40;63.40
72814;DHT22;60945;48.516;-2.768;2022-11-20T15:30:16;13.20;63.60
72814;DHT22;60945;48.516;-2.768;2022-11-20T15:32:43;13.00;64.70
72814;DHT22;60945;48.516;-2.768;2022-11-20T15:35:09;12.90;65.10
72814;DHT22;60945;48.516;-2.768;2022-11-20T15:37:36;12.70;67.10
72814;DHT22;60945;48.516;-2.768;2022-11-20T15:40:02;12.70;66.60
72814;DHT22;60945;48.516;-2.768;2022-11-20T15:42:27;12.60;67.20
72814;DHT22;60945;48.516;-2.768;2022-11-20T15:44:53;12.40;68.80
72814;DHT22;60945;48.516;-2.768;2022-11-20T15:47:21;12.30;68.60
72814;DHT22;60945;48.516;-2.768;2022-11-20T15:49:48;12.20;70.10
72814;DHT22;60945;48.516;-2.768;2022-11-20T15:52:14;12.10;70.40
72814;DHT22;60945;48.516;-2.768;2022-11-20T15:54:42;11.90;70.60
72814;DHT22;60945;48.516;-2.768;2022-11-20T15:57:07;11.90;71.20
72814;DHT22;60945;48.516;-2.768;2022-11-20T15:59:33;11.80;72.10
72814;DHT22;60945;48.516;-2.768;2022-11-20T16:01:59;11.80;71.60
72814;DHT22;60945;48.516;-2.768;2022-11-20T16:04:25;11.60;71.60
72814;DHT22;60945;48.516;-2.768;2022-11-20T16:06:51;11.60;72.20
72814;DHT22;60945;48.516;-2.768;2022-11-20T16:09:17;11.60;72.30
72814;DHT22;60945;48.516;-2.768;2022-11-20T16:11:42;11.50;73.50
72814;DHT22;60945;48.516;-2.768;2022-11-20T16:14:10;11.50;73.50
72814;DHT22;60945;48.516;-2.768;2022-11-20T16:16:54;11.30;74.50
72814;DHT22;60945;48.516;-2.768;2022-11-20T16:19:20;11.30;74.40
72814;DHT22;60945;48.516;-2.768;2022-11-20T16:21:45;11.20;74.70
72814;DHT22;60945;48.516;-2.768;2022-11-20T16:24:14;11.20;74.90
72814;DHT22;60945;48.516;-2.768;2022-11-20T16:26:41;11.20;74.40
72814;DHT22;60945;48.516;-2.768;2022-11-20T16:29:09;11.20;74.90
72814;DHT22;60945;48.516;-2.768;2022-11-20T16:31:35;11.10;75.10
72814;DHT22;60945;48.516;-2.768;2022-11-20T16:34:04;11.10;75.10
72814;DHT22;60945;48.516;-2.768;2022-11-20T16:36:32;11.10;75.40
72814;DHT22;60945;48.516;-2.768;2022-11-20T16:39:00;11.10;75.00
72814;DHT22;60945;48.516;-2.768;2022-11-20T16:41:27;11.10;75.40
72814;DHT22;60945;48.516;-2.768;2022-11-20T16:43:54;11.10;75.50
72814;DHT22;60945;48.516;-2.768;2022-11-20T16:46:23;11.10;75.20
72814;DHT22;60945;48.516;-2.768;2022-11-20T16:48:54;11.10;75.60
72814;DHT22;60945;48.516;-2.768;2022-11-20T16:51:20;11.00;76.20
72814;DHT22;60945;48.516;-2.768;2022-11-20T16:53:46;10.90;76.40
72814;DHT22;60945;48.516;-2.768;2022-11-20T16:56:14;10.90;77.00
72814;DHT22;60945;48.516;-2.768;2022-11-20T16:58:44;10.90;77.30
72814;DHT22;60945;48.516;-2.768;2022-11-20T17:01:12;10.90;77.40
72814;DHT22;60945;48.516;-2.768;2022-11-20T17:03:40;10.80;77.50
72814;DHT22;60945;48.516;-2.768;2022-11-20T17:06:20;10.70;77.40
72814;DHT22;60945;48.516;-2.768;2022-11-20T17:08:47;10.70;78.00